sensor_id;sensor_type;location;lat;lon;timestamp;P1;durP1;ratioP1;P2;durP2;ratioP2
67378;SDS011;54262;44.642;-0.974;2022-12-18T00:00:46;6.95;;;6.57;;
67378;SDS011;54262;44.642;-0.974;2022-12-18T00:03:13;6.88;;;6.53;;
67378;SDS011;54262;44.642;-0.974;2022-12-18T00:05:46;6.95;;;6.57;;
67378;SDS011;54262;44.642;-0.974;2022-12-18T00:08:13;9.48;;;8.70;;
67378;SDS011;54262;44.642;-0.974;2022-12-18T00:10:39;7.55;;;7.15;;
67378;SDS011;54262;44.642;-0.974;2022-12-18T00:13:05;7.13;;;6.72;;
67378;SDS011;54262;44.642;-0.974;2022-12-18T00:15:33;5.70;;;5.40;;
67378;SDS011;54262;44.642;-0.974;2022-12-18T00:17:59;6.00;;;5.70;;
67378;SDS011;54262;44.642;-0.974;2022-12-18T00:20:25;5.93;;;5.63;;
67378;SDS011;54262;44.642;-0.974;2022-12-18T00:22:54;5.38;;;4.97;;
67378;SDS011;54262;44.642;-0.974;2022-12-18T00:25:20;5.85;;;5.55;;
67378;SDS011;54262;44.642;-0.974;2022-12-18T00:27:46;5.68;;;5.28;;
67378;SDS011;54262;44.642;-0.974;2022-12-18T00:30:12;6.05;;;5.72;;
67378;SDS011;54262;44.642;-0.974;2022-12-18T00:32:38;6.13;;;5.82;;
67378;SDS011;54262;44.642;-0.974;2022-12-18T00:35:04;5.93;;;5.63;;
67378;SDS011;54262;44.642;-0.974;2022-12-18T00:37:31;5.75;;;5.45;;
67378;SDS011;54262;44.642;-0.974;2022-12-18T00:39:58;6.05;;;5.75;;
67378;SDS011;54262;44.642;-0.974;2022-12-18T00:42:24;5.75;;;5.45;;
67378;SDS011;54262;44.642;-0.974;2022-12-18T00:47:35;5.60;;;5.30;;
67378;SDS011;54262;44.642;-0.974;2022-12-18T00:50:01;5.63;;;5.32;;
67378;SDS011;54262;44.642;-0.974;2022-12-18T00:52:27;6.15;;;5.85;;
67378;SDS011;54262;44.642;-0.974;2022-12-18T00:54:53;5.43;;;5.13;;
67378;SDS011;54262;44.642;-0.974;2022-12-18T00:57:19;5.38;;;5.07;;
67378;SDS011;54262;44.642;-0.974;2022-12-18T00:59:45;5.53;;;5.22;;
67378;SDS011;54262;44.642;-0.974;2022-12-18T01:02:14;5.65;;;5.35;;
67378;SDS011;54262;44.642;-0.974;2022-12-18T01:04:40;5.20;;;4.90;;
67378;SDS011;54262;44.642;-0.974;2022-12-18T01:07:06;5.35;;;5.13;;
67378;SDS011;54262;44.642;-0.974;2022-12-18T01:09:32;6.30;;;6.00;;
67378;SDS011;54262;44.642;-0.974;2022-12-18T01:11:59;5.90;;;5.60;;
67378;SDS011;54262;44.642;-0.974;2022-12-18T01:14:25;5.90;;;5.60;;
67378;SDS011;54262;44.642;-0.974;2022-12-18T01:16:51;5.85;;;5.55;;
67378;SDS011;54262;44.642;-0.974;2022-12-18T01:19:17;5.30;;;5.10;;
67378;SDS011;54262;44.642;-0.974;2022-12-18T01:21:43;5.25;;;5.05;;
67378;SDS011;54262;44.642;-0.974;2022-12-18T01:24:09;6.13;;;5.80;;
67378;SDS011;54262;44.642;-0.974;2022-12-18T01:26:37;5.70;;;5.40;;
67378;SDS011;54262;44.642;-0.974;2022-12-18T01:29:03;5.53;;;5.22;;
67378;SDS011;54262;44.642;-0.974;2022-12-18T01:31:30;5.82;;;5.50;;
67378;SDS011;54262;44.642;-0.974;2022-12-18T01:33:57;5.50;;;5.20;;
67378;SDS011;54262;44.642;-0.974;2022-12-18T01:36:25;5.57;;;5.28;;
67378;SDS011;54262;44.642;-0.974;2022-12-18T01:38:51;5.10;;;4.90;;
67378;SDS011;54262;44.642;-0.974;2022-12-18T01:41:20;5.47;;;5.10;;
67378;SDS011;54262;44.642;-0.974;2022-12-18T01:43:48;6.07;;;5.68;;
67378;SDS011;54262;44.642;-0.974;2022-12-18T01:46:14;6.35;;;6.03;;
67378;SDS011;54262;44.642;-0.974;2022-12-18T01:48:41;5.75;;;5.45;;
67378;SDS011;54262;44.642;-0.974;2022-12-18T01:51:08;5.75;;;5.20;;
67378;SDS011;54262;44.642;-0.974;2022-12-18T01:53:35;6.95;;;6.55;;
67378;SDS011;54262;44.642;-0.974;2022-12-18T01:56:01;7.15;;;6.75;;
67378;SDS011;54262;44.642;-0.974;2022-12-18T01:58:40;5.25;;;4.95;;
67378;SDS011;54262;44.642;-0.974;2022-12-18T02:01:07;6.25;;;5.95;;
67378;SDS011;54262;44.642;-0.974;2022-12-18T02:03:34;6.88;;;6.38;;
67378;SDS011;54262;44.642;-0.974;2022-12-18T02:06:02;7.38;;;6.97;;
67378;SDS011;54262;44.642;-0.974;2022-12-18T02:18:38;7.03;;;6.50;;
67378;SDS011;54262;44.642;-0.974;2022-12-18T02:26:22;7.40;;;7.00;;
67378;SDS011;54262;44.642;-0.974;2022-12-18T02:31:27;6.90;;;6.50;;
67378;SDS011;54262;44.642;-0.974;2022-12-18T02:33:58;5.43;;;5.13;;
67378;SDS011;54262;44.642;-0.974;2022-12-18T02:36:25;6.90;;;6.47;;
67378;SDS011;54262;44.642;-0.974;2022-12-18T02:38:53;5.63;;;5.32;;
67378;SDS011;54262;44.642;-0.974;2022-12-18T02:41:23;6.28;;;4.97;;
67378;SDS011;54262;44.642;-0.974;2022-12-18T02:43:53;5.63;;;5.32;;
67378;SDS011;54262;44.642;-0.974;2022-12-18T02:46:35;6.05;;;5.75;;
67378;SDS011;54262;44.642;-0.974;2022-12-18T02:51:33;5.60;;;5.30;;
67378;SDS011;54262;44.642;-0.974;2022-12-18T02:54:11;5.47;;;5.18;;
67378;SDS011;54262;44.642;-0.974;2022-12-18T02:56:42;7.38;;;6.97;;
67378;SDS011;54262;44.642;-0.974;2022-12-18T02:59:13;4.80;;;4.60;;
67378;SDS011;54262;44.642;-0.974;2022-12-18T03:04:12;5.45;;;5.15;;
67378;SDS011;54262;44.642;-0.974;2022-12-18T03:06:43;5.05;;;4.75;;
67378;SDS011;54262;44.642;-0.974;2022-12-18T03:09:12;5.05;;;4.75;;
67378;SDS011;54262;44.642;-0.974;2022-12-18T03:11:40;5.88;;;5.57;;
67378;SDS011;54262;44.642;-0.974;2022-12-18T03:14:26;5.57;;;5.28;;
67378;SDS011;54262;44.642;-0.974;2022-12-18T03:16:54;4.68;;;4.38;;
67378;SDS011;54262;44.642;-0.974;2022-12-18T03:19:24;4.40;;;4.20;;
67378;SDS011;54262;44.642;-0.974;2022-12-18T03:21:53;4.82;;;4.63;;
67378;SDS011;54262;44.642;-0.974;2022-12-18T03:24:20;6.82;;;6.43;;
67378;SDS011;54262;44.642;-0.974;2022-12-18T03:26:47;5.65;;;5.35;;
67378;SDS011;54262;44.642;-0.974;2022-12-18T03:29:21;5.25;;;4.85;;
67378;SDS011;54262;44.642;-0.974;2022-12-18T03:31:49;6.50;;;6.07;;
67378;SDS011;54262;44.642;-0.974;2022-12-18T03:34:19;4.97;;;4.78;;
67378;SDS011;54262;44.642;-0.974;2022-12-18T03:36:48;4.65;;;4.35;;
67378;SDS011;54262;44.642;-0.974;2022-12-18T03:39:14;5.28;;;4.78;;
67378;SDS011;54262;44.642;-0.974;2022-12-18T03:41:51;4.28;;;4.07;;
67378;SDS011;54262;44.642;-0.974;2022-12-18T03:44:26;4.47;;;4.28;;
67378;SDS011;54262;44.642;-0.974;2022-12-18T03:46:58;4.68;;;4.47;;
67378;SDS011;54262;44.642;-0.974;2022-12-18T03:49:35;4.38;;;4.18;;
67378;SDS011;54262;44.642;-0.974;2022-12-18T03:52:04;4.47;;;4.28;;
67378;SDS011;54262;44.642;-0.974;2022-12-18T03:54:31;4.97;;;4.68;;
67378;SDS011;54262;44.642;-0.974;2022-12-18T03:57:01;5.30;;;5.07;;
67378;SDS011;54262;44.642;-0.974;2022-12-18T03:59:29;5.45;;;5.15;;
67378;SDS011;54262;44.642;-0.974;2022-12-18T04:01:56;3.85;;;3.65;;
67378;SDS011;54262;44.642;-0.974;2022-12-18T04:04:23;4.65;;;4.43;;
67378;SDS011;54262;44.642;-0.974;2022-12-18T04:06:50;4.45;;;4.25;;
67378;SDS011;54262;44.642;-0.974;2022-12-18T04:09:17;4.65;;;4.45;;
67378;SDS011;54262;44.642;-0.974;2022-12-18T04:11:43;4.88;;;4.68;;
67378;SDS011;54262;44.642;-0.974;2022-12-18T04:14:09;4.20;;;4.00;;
67378;SDS011;54262;44.642;-0.974;2022-12-18T04:16:35;4.30;;;4.10;;
67378;SDS011;54262;44.642;-0.974;2022-12-18T04:19:02;4.80;;;4.50;;
67378;SDS011;54262;44.642;-0.974;2022-12-18T04:21:28;4.43;;;4.13;;
67378;SDS011;54262;44.642;-0.974;2022-12-18T04:23:54;4.03;;;3.83;;
67378;SDS011;54262;44.642;-0.974;2022-12-18T04:26:20;7.32;;;6.80;;
67378;SDS011;54262;44.642;-0.974;2022-12-18T04:28:46;7.45;;;7.05;;
67378;SDS011;54262;44.642;-0.974;2022-12-18T04:31:12;6.40;;;6.00;;
67378;SDS011;54262;44.642;-0.974;2022-12-18T04:33:39;5.40;;;5.10;;
67378;SDS011;54262;44.642;-0.974;2022-12-18T04:36:05;3.75;;;3.55;;
67378;SDS011;54262;44.642;-0.974;2022-12-18T04:38:31;3.75;;;3.55;;
67378;SDS011;54262;44.642;-0.974;2022-12-18T04:40:57;4.00;;;3.80;;
67378;SDS011;54262;44.642;-0.974;2022-12-18T04:43:23;4.72;;;4.43;;
67378;SDS011;54262;44.642;-0.974;2022-12-18T04:45:49;4.07;;;3.88;;
67378;SDS011;54262;44.642;-0.974;2022-12-18T04:48:15;4.03;;;3.83;;
67378;SDS011;54262;44.642;-0.974;2022-12-18T04:50:41;4.25;;;4.05;;
67378;SDS011;54262;44.642;-0.974;2022-12-18T04:53:07;3.58;;;3.42;;
67378;SDS011;54262;44.642;-0.974;2022-12-18T04:55:33;4.22;;;4.03;;
67378;SDS011;54262;44.642;-0.974;2022-12-18T04:57:59;4.05;;;3.80;;
67378;SDS011;54262;44.642;-0.974;2022-12-18T05:00:25;4.32;;;4.13;;
67378;SDS011;54262;44.642;-0.974;2022-12-18T05:02:51;4.45;;;4.20;;
67378;SDS011;54262;44.642;-0.974;2022-12-18T05:05:17;4.18;;;3.90;;
67378;SDS011;54262;44.642;-0.974;2022-12-18T05:07:43;4.60;;;4.40;;
67378;SDS011;54262;44.642;-0.974;2022-12-18T05:10:09;5.93;;;5.60;;
67378;SDS011;54262;44.642;-0.974;2022-12-18T05:12:35;6.50;;;4.40;;
67378;SDS011;54262;44.642;-0.974;2022-12-18T05:15:23;3.88;;;3.67;;
67378;SDS011;54262;44.642;-0.974;2022-12-18T05:17:49;4.80;;;4.50;;
67378;SDS011;54262;44.642;-0.974;2022-12-18T05:20:15;4.28;;;4.07;;
67378;SDS011;54262;44.642;-0.974;2022-12-18T05:22:41;3.88;;;3.63;;
67378;SDS011;54262;44.642;-0.974;2022-12-18T05:25:07;3.38;;;3.28;;
67378;SDS011;54262;44.642;-0.974;2022-12-18T05:27:33;3.08;;;2.97;;
67378;SDS011;54262;44.642;-0.974;2022-12-18T05:29:59;3.25;;;3.15;;
67378;SDS011;54262;44.642;-0.974;2022-12-18T05:32:25;3.95;;;3.75;;
67378;SDS011;54262;44.642;-0.974;2022-12-18T05:34:51;4.15;;;3.95;;
67378;SDS011;54262;44.642;-0.974;2022-12-18T05:37:17;4.22;;;3.92;;
67378;SDS011;54262;44.642;-0.974;2022-12-18T05:39:43;3.97;;;3.78;;
67378;SDS011;54262;44.642;-0.974;2022-12-18T05:42:09;3.28;;;3.17;;
67378;SDS011;54262;44.642;-0.974;2022-12-18T05:44:35;2.97;;;2.88;;
67378;SDS011;54262;44.642;-0.974;2022-12-18T05:47:01;3.30;;;3.15;;
67378;SDS011;54262;44.642;-0.974;2022-12-18T05:49:27;3.30;;;3.20;;
67378;SDS011;54262;44.642;-0.974;2022-12-18T05:51:53;2.83;;;2.72;;
67378;SDS011;54262;44.642;-0.974;2022-12-18T05:54:19;2.88;;;2.78;;
67378;SDS011;54262;44.642;-0.974;2022-12-18T05:56:45;2.83;;;2.72;;
67378;SDS011;54262;44.642;-0.974;2022-12-18T05:59:11;2.78;;;2.67;;
67378;SDS011;54262;44.642;-0.974;2022-12-18T06:01:37;3.15;;;3.05;;
67378;SDS011;54262;44.642;-0.974;2022-12-18T06:04:03;2.70;;;2.60;;
67378;SDS011;54262;44.642;-0.974;2022-12-18T06:06:29;3.33;;;3.13;;
67378;SDS011;54262;44.642;-0.974;2022-12-18T06:08:56;2.78;;;2.67;;
67378;SDS011;54262;44.642;-0.974;2022-12-18T06:11:23;2.72;;;2.60;;
67378;SDS011;54262;44.642;-0.974;2022-12-18T06:13:50;2.88;;;2.78;;
67378;SDS011;54262;44.642;-0.974;2022-12-18T06:16:17;2.47;;;2.38;;
67378;SDS011;54262;44.642;-0.974;2022-12-18T06:18:43;2.42;;;2.33;;
67378;SDS011;54262;44.642;-0.974;2022-12-18T06:21:09;2.90;;;2.80;;
67378;SDS011;54262;44.642;-0.974;2022-12-18T06:23:35;2.63;;;2.53;;
67378;SDS011;54262;44.642;-0.974;2022-12-18T06:26:05;2.95;;;2.85;;
67378;SDS011;54262;44.642;-0.974;2022-12-18T06:28:31;3.78;;;3.58;;
67378;SDS011;54262;44.642;-0.974;2022-12-18T06:30:57;2.65;;;2.55;;
67378;SDS011;54262;44.642;-0.974;2022-12-18T06:33:25;3.30;;;3.10;;
67378;SDS011;54262;44.642;-0.974;2022-12-18T06:35:51;2.47;;;2.38;;
67378;SDS011;54262;44.642;-0.974;2022-12-18T06:38:17;2.90;;;2.80;;
67378;SDS011;54262;44.642;-0.974;2022-12-18T06:40:43;2.53;;;2.35;;
67378;SDS011;54262;44.642;-0.974;2022-12-18T06:43:09;2.72;;;2.63;;
67378;SDS011;54262;44.642;-0.974;2022-12-18T06:45:35;2.38;;;2.28;;
67378;SDS011;54262;44.642;-0.974;2022-12-18T06:48:01;2.42;;;2.33;;
67378;SDS011;54262;44.642;-0.974;2022-12-18T06:50:27;2.58;;;2.47;;
67378;SDS011;54262;44.642;-0.974;2022-12-18T06:52:53;2.33;;;2.22;;
67378;SDS011;54262;44.642;-0.974;2022-12-18T06:55:19;2.22;;;2.13;;
67378;SDS011;54262;44.642;-0.974;2022-12-18T06:57:45;2.72;;;2.63;;
67378;SDS011;54262;44.642;-0.974;2022-12-18T07:00:11;3.00;;;2.90;;
67378;SDS011;54262;44.642;-0.974;2022-12-18T07:02:38;3.10;;;3.00;;
67378;SDS011;54262;44.642;-0.974;2022-12-18T07:05:05;2.72;;;2.63;;
67378;SDS011;54262;44.642;-0.974;2022-12-18T07:07:32;3.00;;;2.90;;
67378;SDS011;54262;44.642;-0.974;2022-12-18T07:09:58;3.30;;;3.10;;
67378;SDS011;54262;44.642;-0.974;2022-12-18T07:12:26;3.15;;;3.05;;
67378;SDS011;54262;44.642;-0.974;2022-12-18T07:14:52;3.00;;;2.90;;
67378;SDS011;54262;44.642;-0.974;2022-12-18T07:17:18;2.63;;;2.53;;
67378;SDS011;54262;44.642;-0.974;2022-12-18T07:19:44;2.30;;;2.20;;
67378;SDS011;54262;44.642;-0.974;2022-12-18T07:22:10;2.28;;;2.17;;
67378;SDS011;54262;44.642;-0.974;2022-12-18T07:24:36;2.05;;;2.00;;
67378;SDS011;54262;44.642;-0.974;2022-12-18T07:27:02;2.60;;;2.50;;
67378;SDS011;54262;44.642;-0.974;2022-12-18T07:29:28;2.17;;;2.08;;
67378;SDS011;54262;44.642;-0.974;2022-12-18T07:31:54;2.78;;;2.67;;
67378;SDS011;54262;44.642;-0.974;2022-12-18T07:34:20;2.65;;;2.38;;
67378;SDS011;54262;44.642;-0.974;2022-12-18T07:36:46;2.72;;;2.63;;
67378;SDS011;54262;44.642;-0.974;2022-12-18T07:39:12;2.50;;;2.40;;
67378;SDS011;54262;44.642;-0.974;2022-12-18T07:41:38;2.30;;;2.20;;
67378;SDS011;54262;44.642;-0.974;2022-12-18T07:44:10;2.55;;;2.45;;
67378;SDS011;54262;44.642;-0.974;2022-12-18T07:46:36;2.38;;;2.28;;
67378;SDS011;54262;44.642;-0.974;2022-12-18T07:49:02;3.05;;;2.95;;
67378;SDS011;54262;44.642;-0.974;2022-12-18T07:51:28;2.42;;;2.33;;
67378;SDS011;54262;44.642;-0.974;2022-12-18T07:53:54;2.33;;;2.22;;
67378;SDS011;54262;44.642;-0.974;2022-12-18T07:56:21;2.38;;;2.28;;
67378;SDS011;54262;44.642;-0.974;2022-12-18T07:58:47;2.75;;;2.65;;
67378;SDS011;54262;44.642;-0.974;2022-12-18T08:01:13;2.22;;;2.13;;
67378;SDS011;54262;44.642;-0.974;2022-12-18T08:03:39;7.10;;;2.65;;
67378;SDS011;54262;44.642;-0.974;2022-12-18T08:06:06;3.58;;;3.47;;
67378;SDS011;54262;44.642;-0.974;2022-12-18T08:08:33;2.90;;;2.80;;
67378;SDS011;54262;44.642;-0.974;2022-12-18T08:11:00;2.70;;;2.60;;
67378;SDS011;54262;44.642;-0.974;2022-12-18T08:13:26;2.92;;;2.83;;
67378;SDS011;54262;44.642;-0.974;2022-12-18T08:15:56;5.00;;;3.92;;
67378;SDS011;54262;44.642;-0.974;2022-12-18T08:18:22;5.40;;;5.10;;
67378;SDS011;54262;44.642;-0.974;2022-12-18T08:20:49;6.05;;;5.72;;
67378;SDS011;54262;44.642;-0.974;2022-12-18T08:23:15;6.00;;;5.70;;
67378;SDS011;54262;44.642;-0.974;2022-12-18T08:25:41;5.60;;;5.25;;
67378;SDS011;54262;44.642;-0.974;2022-12-18T08:28:07;4.60;;;4.40;;
67378;SDS011;54262;44.642;-0.974;2022-12-18T08:30:33;6.03;;;5.68;;
67378;SDS011;54262;44.642;-0.974;2022-12-18T08:32:59;4.85;;;4.55;;
67378;SDS011;54262;44.642;-0.974;2022-12-18T08:35:25;2.70;;;2.60;;
67378;SDS011;54262;44.642;-0.974;2022-12-18T08:37:52;3.70;;;3.50;;
67378;SDS011;54262;44.642;-0.974;2022-12-18T08:40:18;4.60;;;4.20;;
67378;SDS011;54262;44.642;-0.974;2022-12-18T08:42:44;4.45;;;4.25;;
67378;SDS011;54262;44.642;-0.974;2022-12-18T08:47:54;3.60;;;3.40;;
67378;SDS011;54262;44.642;-0.974;2022-12-18T08:50:20;3.40;;;3.30;;
67378;SDS011;54262;44.642;-0.974;2022-12-18T08:52:46;2.53;;;2.42;;
67378;SDS011;54262;44.642;-0.974;2022-12-18T08:55:12;2.08;;;1.98;;
67378;SDS011;54262;44.642;-0.974;2022-12-18T08:57:38;1.80;;;1.80;;
67378;SDS011;54262;44.642;-0.974;2022-12-18T09:00:04;2.50;;;2.40;;
67378;SDS011;54262;44.642;-0.974;2022-12-18T09:02:31;2.10;;;2.00;;
67378;SDS011;54262;44.642;-0.974;2022-12-18T09:04:57;2.28;;;2.17;;
67378;SDS011;54262;44.642;-0.974;2022-12-18T09:07:23;2.22;;;2.13;;
67378;SDS011;54262;44.642;-0.974;2022-12-18T09:09:49;2.10;;;2.00;;
67378;SDS011;54262;44.642;-0.974;2022-12-18T09:12:15;2.38;;;2.28;;
67378;SDS011;54262;44.642;-0.974;2022-12-18T09:14:41;2.60;;;2.50;;
67378;SDS011;54262;44.642;-0.974;2022-12-18T09:17:07;1.90;;;1.80;;
67378;SDS011;54262;44.642;-0.974;2022-12-18T09:19:33;2.28;;;2.17;;
67378;SDS011;54262;44.642;-0.974;2022-12-18T09:21:59;2.53;;;2.42;;
67378;SDS011;54262;44.642;-0.974;2022-12-18T09:24:25;2.15;;;2.05;;
67378;SDS011;54262;44.642;-0.974;2022-12-18T09:26:54;2.65;;;2.55;;
67378;SDS011;54262;44.642;-0.974;2022-12-18T09:29:20;3.25;;;3.00;;
67378;SDS011;54262;44.642;-0.974;2022-12-18T09:31:46;2.88;;;2.78;;
67378;SDS011;54262;44.642;-0.974;2022-12-18T09:34:12;2.45;;;2.35;;
67378;SDS011;54262;44.642;-0.974;2022-12-18T09:36:38;2.05;;;1.95;;
67378;SDS011;54262;44.642;-0.974;2022-12-18T09:39:04;2.33;;;2.22;;
67378;SDS011;54262;44.642;-0.974;2022-12-18T09:44:01;2.45;;;2.35;;
67378;SDS011;54262;44.642;-0.974;2022-12-18T09:46:30;2.30;;;2.20;;
67378;SDS011;54262;44.642;-0.974;2022-12-18T09:48:58;2.25;;;2.15;;
67378;SDS011;54262;44.642;-0.974;2022-12-18T09:51:37;2.55;;;2.45;;
67378;SDS011;54262;44.642;-0.974;2022-12-18T09:54:12;2.05;;;1.95;;
67378;SDS011;54262;44.642;-0.974;2022-12-18T09:56:40;1.83;;;1.77;;
67378;SDS011;54262;44.642;-0.974;2022-12-18T10:02:16;2.67;;;2.58;;
67378;SDS011;54262;44.642;-0.974;2022-12-18T10:04:43;2.30;;;2.20;;
67378;SDS011;54262;44.642;-0.974;2022-12-18T10:07:15;2.55;;;2.45;;
67378;SDS011;54262;44.642;-0.974;2022-12-18T10:09:53;2.35;;;2.25;;
67378;SDS011;54262;44.642;-0.974;2022-12-18T10:17:47;1.70;;;1.70;;
67378;SDS011;54262;44.642;-0.974;2022-12-18T10:23:26;2.85;;;2.47;;
67378;SDS011;54262;44.642;-0.974;2022-12-18T10:28:17;2.38;;;1.70;;
67378;SDS011;54262;44.642;-0.974;2022-12-18T10:30:44;2.15;;;2.05;;
67378;SDS011;54262;44.642;-0.974;2022-12-18T10:33:13;2.10;;;2.00;;
67378;SDS011;54262;44.642;-0.974;2022-12-18T10:35:41;2.05;;;1.95;;
67378;SDS011;54262;44.642;-0.974;2022-12-18T10:43:15;1.20;;;1.20;;
67378;SDS011;54262;44.642;-0.974;2022-12-18T10:45:57;1.67;;;1.63;;
67378;SDS011;54262;44.642;-0.974;2022-12-18T10:48:24;1.88;;;1.77;;
67378;SDS011;54262;44.642;-0.974;2022-12-18T10:50:50;2.15;;;2.05;;
67378;SDS011;54262;44.642;-0.974;2022-12-18T10:53:21;4.25;;;2.10;;
67378;SDS011;54262;44.642;-0.974;2022-12-18T10:55:47;1.42;;;1.42;;
67378;SDS011;54262;44.642;-0.974;2022-12-18T10:58:27;1.50;;;1.50;;
67378;SDS011;54262;44.642;-0.974;2022-12-18T11:01:04;1.17;;;1.17;;
67378;SDS011;54262;44.642;-0.974;2022-12-18T11:06:01;1.60;;;1.55;;
67378;SDS011;54262;44.642;-0.974;2022-12-18T11:08:27;1.85;;;1.75;;
67378;SDS011;54262;44.642;-0.974;2022-12-18T11:10:53;1.85;;;1.75;;
67378;SDS011;54262;44.642;-0.974;2022-12-18T11:13:20;1.90;;;1.80;;
67378;SDS011;54262;44.642;-0.974;2022-12-18T11:15:47;2.15;;;2.05;;
67378;SDS011;54262;44.642;-0.974;2022-12-18T11:18:35;1.48;;;1.48;;
67378;SDS011;54262;44.642;-0.974;2022-12-18T11:21:07;2.33;;;2.22;;
67378;SDS011;54262;44.642;-0.974;2022-12-18T11:23:33;1.90;;;1.80;;
67378;SDS011;54262;44.642;-0.974;2022-12-18T11:26:01;2.08;;;1.98;;
67378;SDS011;54262;44.642;-0.974;2022-12-18T11:28:37;1.38;;;1.38;;
67378;SDS011;54262;44.642;-0.974;2022-12-18T11:31:20;1.55;;;1.45;;
67378;SDS011;54262;44.642;-0.974;2022-12-18T11:33:58;1.45;;;1.38;;
67378;SDS011;54262;44.642;-0.974;2022-12-18T11:36:26;1.60;;;1.50;;
67378;SDS011;54262;44.642;-0.974;2022-12-18T11:38:54;1.67;;;1.65;;
67378;SDS011;54262;44.642;-0.974;2022-12-18T11:41:23;1.13;;;1.13;;
67378;SDS011;54262;44.642;-0.974;2022-12-18T11:44:14;1.52;;;1.52;;
67378;SDS011;54262;44.642;-0.974;2022-12-18T11:46:49;1.55;;;1.55;;
67378;SDS011;54262;44.642;-0.974;2022-12-18T11:49:20;1.55;;;1.55;;
67378;SDS011;54262;44.642;-0.974;2022-12-18T11:51:49;1.75;;;1.65;;
67378;SDS011;54262;44.642;-0.974;2022-12-18T11:54:16;1.10;;;1.10;;
67378;SDS011;54262;44.642;-0.974;2022-12-18T11:56:53;1.60;;;1.50;;
67378;SDS011;54262;44.642;-0.974;2022-12-18T12:02:00;1.38;;;1.38;;
67378;SDS011;54262;44.642;-0.974;2022-12-18T12:07:02;1.23;;;1.23;;
67378;SDS011;54262;44.642;-0.974;2022-12-18T12:09:32;1.20;;;1.20;;
67378;SDS011;54262;44.642;-0.974;2022-12-18T12:17:09;1.67;;;1.58;;
67378;SDS011;54262;44.642;-0.974;2022-12-18T12:19:49;2.17;;;1.40;;
67378;SDS011;54262;44.642;-0.974;2022-12-18T12:33:25;2.15;;;1.10;;
67378;SDS011;54262;44.642;-0.974;2022-12-18T12:40:46;1.35;;;1.25;;
67378;SDS011;54262;44.642;-0.974;2022-12-18T12:43:24;1.45;;;1.35;;
67378;SDS011;54262;44.642;-0.974;2022-12-18T12:45:58;0.90;;;0.90;;
67378;SDS011;54262;44.642;-0.974;2022-12-18T12:50:51;1.13;;;1.02;;
67378;SDS011;54262;44.642;-0.974;2022-12-18T12:53:23;0.70;;;0.70;;
67378;SDS011;54262;44.642;-0.974;2022-12-18T12:55:50;0.98;;;0.98;;
67378;SDS011;54262;44.642;-0.974;2022-12-18T12:58:20;1.02;;;0.90;;
67378;SDS011;54262;44.642;-0.974;2022-12-18T13:06:17;3.13;;;1.10;;
67378;SDS011;54262;44.642;-0.974;2022-12-18T13:08:55;1.00;;;1.00;;
67378;SDS011;54262;44.642;-0.974;2022-12-18T13:11:29;0.90;;;0.90;;
67378;SDS011;54262;44.642;-0.974;2022-12-18T13:14:25;1.10;;;1.10;;
67378;SDS011;54262;44.642;-0.974;2022-12-18T13:16:52;0.80;;;0.80;;
67378;SDS011;54262;44.642;-0.974;2022-12-18T13:19:37;0.90;;;0.90;;
67378;SDS011;54262;44.642;-0.974;2022-12-18T13:22:03;0.80;;;0.80;;
67378;SDS011;54262;44.642;-0.974;2022-12-18T13:24:30;0.57;;;0.57;;
67378;SDS011;54262;44.642;-0.974;2022-12-18T13:26:57;0.80;;;0.80;;
67378;SDS011;54262;44.642;-0.974;2022-12-18T13:32:22;0.80;;;0.80;;
67378;SDS011;54262;44.642;-0.974;2022-12-18T13:34:55;1.10;;;1.10;;
67378;SDS011;54262;44.642;-0.974;2022-12-18T13:40:01;0.93;;;0.93;;
67378;SDS011;54262;44.642;-0.974;2022-12-18T13:42:39;1.10;;;1.10;;
67378;SDS011;54262;44.642;-0.974;2022-12-18T13:48:16;1.25;;;1.15;;
67378;SDS011;54262;44.642;-0.974;2022-12-18T13:50:43;1.10;;;1.00;;
67378;SDS011;54262;44.642;-0.974;2022-12-18T13:53:16;0.90;;;0.90;;
67378;SDS011;54262;44.642;-0.974;2022-12-18T13:55:46;1.15;;;0.77;;
67378;SDS011;54262;44.642;-0.974;2022-12-18T13:58:12;4.10;;;1.30;;
67378;SDS011;54262;44.642;-0.974;2022-12-18T14:00:41;1.10;;;1.00;;
67378;SDS011;54262;44.642;-0.974;2022-12-18T14:05:46;0.93;;;0.93;;
67378;SDS011;54262;44.642;-0.974;2022-12-18T14:08:18;1.00;;;1.00;;
67378;SDS011;54262;44.642;-0.974;2022-12-18T14:10:45;0.90;;;0.90;;
67378;SDS011;54262;44.642;-0.974;2022-12-18T14:13:14;1.10;;;1.00;;
67378;SDS011;54262;44.642;-0.974;2022-12-18T14:15:41;1.33;;;1.33;;
67378;SDS011;54262;44.642;-0.974;2022-12-18T14:20:48;1.27;;;1.15;;
67378;SDS011;54262;44.642;-0.974;2022-12-18T14:25:56;1.65;;;1.10;;
67378;SDS011;54262;44.642;-0.974;2022-12-18T14:28:22;1.38;;;1.27;;
67378;SDS011;54262;44.642;-0.974;2022-12-18T14:30:48;1.50;;;1.40;;
67378;SDS011;54262;44.642;-0.974;2022-12-18T14:33:16;1.40;;;1.40;;
67378;SDS011;54262;44.642;-0.974;2022-12-18T14:36:02;1.08;;;1.08;;
67378;SDS011;54262;44.642;-0.974;2022-12-18T14:38:32;1.60;;;1.50;;
67378;SDS011;54262;44.642;-0.974;2022-12-18T14:43:25;3.55;;;1.20;;
67378;SDS011;54262;44.642;-0.974;2022-12-18T14:45:52;1.33;;;1.23;;
67378;SDS011;54262;44.642;-0.974;2022-12-18T14:50:44;1.50;;;1.40;;
67378;SDS011;54262;44.642;-0.974;2022-12-18T14:53:22;1.90;;;1.80;;
67378;SDS011;54262;44.642;-0.974;2022-12-18T14:55:49;3.50;;;1.70;;
67378;SDS011;54262;44.642;-0.974;2022-12-18T14:58:15;1.30;;;1.30;;
67378;SDS011;54262;44.642;-0.974;2022-12-18T15:00:42;1.88;;;1.77;;
67378;SDS011;54262;44.642;-0.974;2022-12-18T15:03:08;1.42;;;1.33;;
67378;SDS011;54262;44.642;-0.974;2022-12-18T15:05:35;1.40;;;1.40;;
67378;SDS011;54262;44.642;-0.974;2022-12-18T15:08:01;1.20;;;1.20;;
67378;SDS011;54262;44.642;-0.974;2022-12-18T15:10:31;1.80;;;1.70;;
67378;SDS011;54262;44.642;-0.974;2022-12-18T15:18:00;2.15;;;2.05;;
67378;SDS011;54262;44.642;-0.974;2022-12-18T15:20:27;2.05;;;1.95;;
67378;SDS011;54262;44.642;-0.974;2022-12-18T15:22:53;2.45;;;2.25;;
67378;SDS011;54262;44.642;-0.974;2022-12-18T15:27:51;1.95;;;1.85;;
67378;SDS011;54262;44.642;-0.974;2022-12-18T15:30:19;2.15;;;2.03;;
67378;SDS011;54262;44.642;-0.974;2022-12-18T15:32:46;1.77;;;1.67;;
67378;SDS011;54262;44.642;-0.974;2022-12-18T15:37:41;2.10;;;2.00;;
67378;SDS011;54262;44.642;-0.974;2022-12-18T15:40:28;2.38;;;2.08;;
67378;SDS011;54262;44.642;-0.974;2022-12-18T15:42:54;1.40;;;1.40;;
67378;SDS011;54262;44.642;-0.974;2022-12-18T15:45:39;1.50;;;1.50;;
67378;SDS011;54262;44.642;-0.974;2022-12-18T15:48:23;2.08;;;1.98;;
67378;SDS011;54262;44.642;-0.974;2022-12-18T15:50:50;2.53;;;2.33;;
67378;SDS011;54262;44.642;-0.974;2022-12-18T15:53:16;1.85;;;1.75;;
67378;SDS011;54262;44.642;-0.974;2022-12-18T15:55:43;1.67;;;1.58;;
67378;SDS011;54262;44.642;-0.974;2022-12-18T16:00:53;2.72;;;2.53;;
67378;SDS011;54262;44.642;-0.974;2022-12-18T16:03:21;1.70;;;1.63;;
67378;SDS011;54262;44.642;-0.974;2022-12-18T16:05:47;1.77;;;1.70;;
67378;SDS011;54262;44.642;-0.974;2022-12-18T16:08:13;2.35;;;2.25;;
67378;SDS011;54262;44.642;-0.974;2022-12-18T16:10:39;2.33;;;2.22;;
67378;SDS011;54262;44.642;-0.974;2022-12-18T16:13:06;2.20;;;2.10;;
67378;SDS011;54262;44.642;-0.974;2022-12-18T16:15:32;2.13;;;2.03;;
67378;SDS011;54262;44.642;-0.974;2022-12-18T16:17:58;2.15;;;2.05;;
67378;SDS011;54262;44.642;-0.974;2022-12-18T16:20:24;2.17;;;2.08;;
67378;SDS011;54262;44.642;-0.974;2022-12-18T16:22:50;1.90;;;1.80;;
67378;SDS011;54262;44.642;-0.974;2022-12-18T16:27:44;1.75;;;1.75;;
67378;SDS011;54262;44.642;-0.974;2022-12-18T16:30:17;2.38;;;2.20;;
67378;SDS011;54262;44.642;-0.974;2022-12-18T16:32:43;1.73;;;1.63;;
67378;SDS011;54262;44.642;-0.974;2022-12-18T16:35:13;2.13;;;2.03;;
67378;SDS011;54262;44.642;-0.974;2022-12-18T16:37:39;2.55;;;2.35;;
67378;SDS011;54262;44.642;-0.974;2022-12-18T16:40:09;2.05;;;1.95;;
67378;SDS011;54262;44.642;-0.974;2022-12-18T16:42:36;2.67;;;2.45;;